createdAt,value
2023-02-22T00:02:14.604Z,52.34
2023-02-22T00:04:42.247Z,52.95
2023-02-22T00:07:09.700Z,52.54
2023-02-22T00:09:37.235Z,52.46
2023-02-22T00:12:04.837Z,52.96
2023-02-22T00:14:32.315Z,52.66
2023-02-22T00:17:00.053Z,52.91
2023-02-22T00:19:30.977Z,53.22
2023-02-22T00:21:58.627Z,52.68
2023-02-22T00:24:26.131Z,52.84
2023-02-22T00:26:58.284Z,52.66
2023-02-22T00:29:25.995Z,53.02
2023-02-22T00:31:54.255Z,52.75
2023-02-22T00:34:24.245Z,53.36
2023-02-22T00:36:51.906Z,52.68
2023-02-22T00:39:19.386Z,52.84
2023-02-22T00:41:46.909Z,53.07
2023-02-22T00:44:14.754Z,53.42
2023-02-22T00:46:42.222Z,52.68
2023-02-22T00:49:09.760Z,52.78
2023-02-22T00:51:37.643Z,52.93
2023-02-22T00:54:05.520Z,52.88
2023-02-22T00:56:34.514Z,52.93
2023-02-22T00:59:02.475Z,52.80
2023-02-22T01:01:30.988Z,52.86
2023-02-22T01:03:59.231Z,52.40
2023-02-22T01:06:26.965Z,52.60
2023-02-22T01:08:54.500Z,52.38
2023-02-22T01:11:22.463Z,52.75
2023-02-22T01:13:49.933Z,52.79
2023-02-22T01:16:17.558Z,53.26
2023-02-22T01:18:45.020Z,53.04
2023-02-22T01:21:12.675Z,52.91
2023-02-22T01:23:45.066Z,52.96
2023-02-22T01:26:12.952Z,52.97
2023-02-22T01:28:40.393Z,53.00
2023-02-22T01:31:07.983Z,52.87
2023-02-22T01:33:35.431Z,53.09
2023-02-22T01:36:03.817Z,52.91
2023-02-22T01:38:31.250Z,52.66
2023-02-22T01:40:59.069Z,52.96
2023-02-22T01:43:32.152Z,53.17
2023-02-22T01:46:05.624Z,53.06
2023-02-22T01:48:44.926Z,52.92
2023-02-22T01:51:15.032Z,53.00
2023-02-22T01:53:51.896Z,53.42
2023-02-22T01:56:21.026Z,52.96
2023-02-22T01:58:56.622Z,53.32
2023-02-22T02:01:26.104Z,53.16
2023-02-22T02:04:00.594Z,53.03
2023-02-22T02:06:33.561Z,53.24
2023-02-22T02:09:10.930Z,53.15
2023-02-22T02:11:40.642Z,52.80
2023-02-22T02:14:10.412Z,52.90
2023-02-22T02:16:49.544Z,53.05
2023-02-22T02:19:39.932Z,53.07
2023-02-22T02:22:28.900Z,52.76
2023-02-22T02:25:18.235Z,52.97
2023-02-22T02:28:01.166Z,52.69
2023-02-22T02:31:06.257Z,52.47
2023-02-22T02:33:39.995Z,52.17
2023-02-22T02:36:19.824Z,52.62
2023-02-22T02:39:10.782Z,52.67
2023-02-22T02:41:47.818Z,52.77
2023-02-22T02:44:17.724Z,52.74
2023-02-22T02:47:08.317Z,52.79
2023-02-22T02:49:38.874Z,52.51
2023-02-22T02:52:09.845Z,53.08
2023-02-22T02:54:39.099Z,52.91
2023-02-22T02:57:09.595Z,53.02
2023-02-22T02:59:38.243Z,52.66
2023-02-22T03:02:14.665Z,53.32
2023-02-22T03:05:01.735Z,52.54
2023-02-22T03:07:45.719Z,52.48
2023-02-22T03:10:16.048Z,52.53
2023-02-22T03:12:58.711Z,52.96
2023-02-22T03:15:40.377Z,52.45
2023-02-22T03:18:18.651Z,52.68
2023-02-22T03:21:00.012Z,52.47
2023-02-22T03:23:42.814Z,52.78
2023-02-22T03:26:15.041Z,52.60
2023-02-22T03:28:47.003Z,52.87
2023-02-22T03:31:20.207Z,52.85
2023-02-22T03:33:54.856Z,53.13
2023-02-22T03:36:28.615Z,52.99
2023-02-22T03:38:58.519Z,52.90
2023-02-22T03:41:28.512Z,52.41
2023-02-22T03:44:00.369Z,52.33
2023-02-22T03:46:32.480Z,52.27
2023-02-22T03:49:47.023Z,52.90
2023-02-22T03:52:15.344Z,53.02
2023-02-22T03:54:43.856Z,52.62
2023-02-22T03:57:25.328Z,52.89
2023-02-22T04:00:06.910Z,52.84
2023-02-22T04:02:41.198Z,52.94
2023-02-22T04:05:14.334Z,52.90
2023-02-22T04:07:42.764Z,52.73
2023-02-22T04:10:13.301Z,52.50
2023-02-22T04:12:40.962Z,52.44
2023-02-22T04:15:12.017Z,52.62
2023-02-22T04:17:39.597Z,52.72
2023-02-22T04:20:09.515Z,52.95
2023-02-22T04:22:47.541Z,52.82
2023-02-22T04:25:15.937Z,52.32
2023-02-22T04:27:44.553Z,52.59
2023-02-22T04:30:13.050Z,52.34
2023-02-22T04:32:42.174Z,52.58
2023-02-22T04:35:10.830Z,52.75
2023-02-22T04:37:38.541Z,52.70
2023-02-22T04:40:08.318Z,52.90
2023-02-22T04:42:37.603Z,52.50
2023-02-22T04:45:08.162Z,52.58
2023-02-22T04:47:37.656Z,52.40
2023-02-22T04:50:07.714Z,53.05
2023-02-22T04:52:35.804Z,52.44
2023-02-22T04:55:05.012Z,52.30
2023-02-22T04:57:33.861Z,52.30
2023-02-22T05:00:01.485Z,52.23
2023-02-22T05:02:29.548Z,52.53
2023-02-22T05:04:57.264Z,52.58
2023-02-22T05:07:27.277Z,52.81
2023-02-22T05:09:54.875Z,52.47
2023-02-22T05:12:22.371Z,52.58
2023-02-22T05:14:49.978Z,52.81
2023-02-22T05:17:17.438Z,52.00
2023-02-22T05:19:45.190Z,51.52
2023-02-22T05:22:12.712Z,52.63
2023-02-22T05:24:41.209Z,52.68
2023-02-22T05:27:08.909Z,52.15
2023-02-22T05:29:38.787Z,51.84
2023-02-22T05:32:06.906Z,51.72
2023-02-22T05:34:34.580Z,51.36
2023-02-22T05:37:03.574Z,51.47
2023-02-22T05:39:31.855Z,51.19
2023-02-22T05:41:59.780Z,51.47
2023-02-22T05:44:28.092Z,51.12
2023-02-22T05:46:55.546Z,51.57
2023-02-22T05:49:23.090Z,51.04
2023-02-22T05:51:50.696Z,50.88
2023-02-22T05:54:18.142Z,50.98
2023-02-22T05:56:45.719Z,50.90
2023-02-22T05:59:13.281Z,50.46
2023-02-22T06:01:40.706Z,50.18
2023-02-22T06:04:09.232Z,50.00
2023-02-22T06:06:36.722Z,50.02
2023-02-22T06:09:05.622Z,49.46
2023-02-22T06:11:33.107Z,50.22
2023-02-22T06:14:00.620Z,49.38
2023-02-22T06:16:28.640Z,49.41
2023-02-22T06:18:56.156Z,48.92
2023-02-22T06:21:23.881Z,48.74
2023-02-22T06:23:51.361Z,48.07
2023-02-22T06:26:19.746Z,48.17
2023-02-22T06:28:47.349Z,47.62
2023-02-22T06:31:15.468Z,48.09
2023-02-22T06:33:43.125Z,47.15
2023-02-22T06:36:11.619Z,47.67
2023-02-22T06:38:39.195Z,46.68
2023-02-22T06:41:06.626Z,46.90
2023-02-22T06:43:34.119Z,46.16
2023-02-22T06:46:01.716Z,46.05
2023-02-22T06:48:31.403Z,45.98
2023-02-22T06:50:58.922Z,45.60
2023-02-22T06:53:26.457Z,44.61
2023-02-22T06:55:54.921Z,43.99
2023-02-22T06:58:22.602Z,43.42
2023-02-22T07:00:50.020Z,43.51
2023-02-22T07:03:17.655Z,42.10
2023-02-22T07:05:45.297Z,41.83
2023-02-22T07:08:13.394Z,42.07
2023-02-22T07:10:41.104Z,41.48
2023-02-22T07:13:09.158Z,41.32
2023-02-22T07:15:36.995Z,40.71
2023-02-22T07:18:04.753Z,40.60
2023-02-22T07:20:32.546Z,40.44
2023-02-22T07:23:01.373Z,40.29
2023-02-22T07:25:28.871Z,40.38
2023-02-22T07:27:56.413Z,40.04
2023-02-22T07:30:32.501Z,39.89
2023-02-22T07:33:02.163Z,39.88
2023-02-22T07:35:37.344Z,39.80
2023-02-22T07:38:08.215Z,38.81
2023-02-22T07:40:37.369Z,39.06
2023-02-22T07:43:20.683Z,38.04
2023-02-22T07:45:50.169Z,38.67
2023-02-22T07:48:19.238Z,38.57
2023-02-22T07:50:47.432Z,38.64
2023-02-22T07:53:24.408Z,38.30
2023-02-22T07:55:52.196Z,38.03
2023-02-22T07:58:23.331Z,37.57
2023-02-22T08:00:51.136Z,38.08
2023-02-22T08:03:20.810Z,37.33
2023-02-22T08:05:52.246Z,37.25
2023-02-22T08:08:20.186Z,37.45
2023-02-22T08:10:51.710Z,36.89
2023-02-22T08:13:22.365Z,36.61
2023-02-22T08:15:53.888Z,36.08
2023-02-22T08:18:23.173Z,36.59
2023-02-22T08:20:52.184Z,35.99
2023-02-22T08:23:22.649Z,35.34
2023-02-22T08:25:50.242Z,35.28
2023-02-22T08:28:22.641Z,35.49
2023-02-22T08:30:51.152Z,35.13
2023-02-22T08:33:20.029Z,34.72
2023-02-22T08:35:51.902Z,34.79
2023-02-22T08:38:24.220Z,34.29
2023-02-22T08:40:52.979Z,33.68
2023-02-22T08:43:21.926Z,33.12
2023-02-22T08:45:50.112Z,32.79
2023-02-22T08:48:19.649Z,31.58
2023-02-22T08:50:47.889Z,31.60
2023-02-22T08:53:16.734Z,30.55
2023-02-22T08:55:45.308Z,29.76
2023-02-22T08:58:13.845Z,29.07
2023-02-22T09:00:43.362Z,28.38
2023-02-22T09:03:14.093Z,27.36
2023-02-22T09:05:43.465Z,27.14
2023-02-22T09:08:11.306Z,26.73
2023-02-22T09:10:39.040Z,26.45
2023-02-22T09:13:06.777Z,26.25
2023-02-22T09:15:39.749Z,25.54
2023-02-22T09:18:08.877Z,25.15
2023-02-22T09:20:37.118Z,25.39
2023-02-22T09:23:06.917Z,24.84
2023-02-22T09:25:34.387Z,25.32
2023-02-22T09:28:02.744Z,24.50
2023-02-22T09:30:33.181Z,23.88
2023-02-22T09:33:13.284Z,23.58
2023-02-22T09:35:42.898Z,24.64
2023-02-22T09:38:11.650Z,24.61
2023-02-22T09:40:56.442Z,23.34
2023-02-22T09:43:33.322Z,22.67
2023-02-22T09:46:21.838Z,22.57
2023-02-22T09:49:01.860Z,22.80
2023-02-22T09:51:44.459Z,21.79
2023-02-22T09:54:39.505Z,19.93
2023-02-22T09:57:20.426Z,21.34
2023-02-22T10:00:01.160Z,20.64
2023-02-22T10:02:34.803Z,21.18
2023-02-22T10:05:13.943Z,20.34
2023-02-22T10:07:47.851Z,19.75
2023-02-22T10:10:18.674Z,19.99
2023-02-22T10:13:27.495Z,19.55
2023-02-22T10:16:24.510Z,19.37
2023-02-22T10:19:22.614Z,18.88
2023-02-22T10:22:11.899Z,18.58
2023-02-22T10:24:42.689Z,17.74
2023-02-22T10:27:23.435Z,17.96
2023-02-22T10:29:57.348Z,17.11
2023-02-22T10:32:43.389Z,17.25
2023-02-22T10:35:22.564Z,17.23
2023-02-22T10:38:15.029Z,17.73
2023-02-22T10:40:59.363Z,17.29
2023-02-22T10:43:27.143Z,17.38
2023-02-22T10:46:00.516Z,16.47
2023-02-22T10:48:32.096Z,16.10
2023-02-22T10:51:02.586Z,16.26
2023-02-22T10:53:31.345Z,16.30
2023-02-22T10:56:06.250Z,16.24
2023-02-22T10:59:02.699Z,15.98
2023-02-22T11:01:33.223Z,15.28
2023-02-22T11:04:00.717Z,15.31
2023-02-22T11:06:29.460Z,15.18
2023-02-22T11:09:10.462Z,15.04
2023-02-22T11:11:41.540Z,15.17
2023-02-22T11:14:10.917Z,15.33
2023-02-22T11:16:40.774Z,15.36
2023-02-22T11:19:10.971Z,15.11
2023-02-22T11:21:39.651Z,14.91
2023-02-22T11:24:10.702Z,15.31
2023-02-22T11:26:51.570Z,15.63
2023-02-22T11:29:37.491Z,15.30
2023-02-22T11:32:15.678Z,15.73
2023-02-22T11:34:43.363Z,15.47
2023-02-22T11:37:30.577Z,15.09
2023-02-22T11:40:22.752Z,15.35
2023-02-22T11:43:08.463Z,15.87
2023-02-22T11:45:37.412Z,16.28
2023-02-22T11:48:08.496Z,17.18
2023-02-22T11:51:00.230Z,18.20
2023-02-22T11:53:52.258Z,18.95
2023-02-22T11:56:37.796Z,18.58
2023-02-22T11:59:27.956Z,18.63
2023-02-22T12:02:01.573Z,19.37
2023-02-22T12:04:47.596Z,21.17
2023-02-22T12:07:32.739Z,21.49
2023-02-22T12:10:20.168Z,21.34
2023-02-22T12:13:17.203Z,20.68
2023-02-22T12:15:56.392Z,19.17
2023-02-22T12:18:26.662Z,19.09
2023-02-22T12:20:59.056Z,19.24
2023-02-22T12:23:45.963Z,20.64
2023-02-22T12:26:28.661Z,21.19
2023-02-22T12:29:01.463Z,21.69
2023-02-22T12:31:38.894Z,22.93
2023-02-22T12:34:27.429Z,23.66
2023-02-22T12:37:01.636Z,23.39
2023-02-22T12:40:09.780Z,23.25
2023-02-22T12:42:52.267Z,23.11
2023-02-22T12:45:34.886Z,25.33
2023-02-22T12:48:25.394Z,26.09
2023-02-22T12:50:59.226Z,27.11
2023-02-22T12:53:31.446Z,27.45
2023-02-22T12:56:31.819Z,29.06
2023-02-22T12:59:19.753Z,29.93
2023-02-22T13:01:55.936Z,30.20
2023-02-22T13:04:23.577Z,29.88
2023-02-22T13:07:04.708Z,31.00
2023-02-22T13:10:04.414Z,31.70
2023-02-22T13:12:52.418Z,32.35
2023-02-22T13:15:38.769Z,31.95
2023-02-22T13:18:48.740Z,33.52
2023-02-22T13:21:42.049Z,32.74
2023-02-22T13:24:30.462Z,33.22
2023-02-22T13:27:11.181Z,34.20
2023-02-22T13:29:42.145Z,32.86
2023-02-22T13:32:51.459Z,34.33
2023-02-22T13:35:21.721Z,34.17
2023-02-22T13:37:52.190Z,33.90
2023-02-22T13:40:36.618Z,33.34
2023-02-22T13:43:38.042Z,35.02
2023-02-22T13:46:27.241Z,35.40
2023-02-22T13:49:22.664Z,36.73
2023-02-22T13:52:07.150Z,35.76
2023-02-22T13:54:37.794Z,35.39
2023-02-22T13:57:23.667Z,37.41
2023-02-22T14:00:26.324Z,39.22
2023-02-22T14:03:09.212Z,38.30
2023-02-22T14:05:39.840Z,37.94
2023-02-22T14:08:28.292Z,38.28
2023-02-22T14:10:57.721Z,37.76
2023-02-22T14:13:29.895Z,38.35
2023-02-22T14:16:00.381Z,39.42
2023-02-22T14:18:29.769Z,38.74
2023-02-22T14:21:12.532Z,40.63
2023-02-22T14:23:45.992Z,39.97
2023-02-22T14:26:19.563Z,39.39
2023-02-22T14:28:57.138Z,41.60
2023-02-22T14:31:35.874Z,40.23
2023-02-22T14:34:14.814Z,40.94
2023-02-22T14:36:54.727Z,41.30
2023-02-22T14:39:37.497Z,41.36
2023-02-22T14:42:14.394Z,41.71
2023-02-22T14:44:49.213Z,41.74
2023-02-22T14:47:21.905Z,42.04
2023-02-22T14:49:52.673Z,42.11
2023-02-22T14:52:25.914Z,42.48
2023-02-22T14:54:59.529Z,42.75
2023-02-22T14:57:53.699Z,42.66
2023-02-22T15:00:31.225Z,42.89
2023-02-22T15:03:00.276Z,45.54
2023-02-22T15:05:34.803Z,42.94
2023-02-22T15:08:06.029Z,43.25
2023-02-22T15:10:54.422Z,44.59
2023-02-22T15:13:25.598Z,43.67
2023-02-22T15:15:59.686Z,43.04
2023-02-22T15:18:30.206Z,42.77
2023-02-22T15:21:04.187Z,43.93
2023-02-22T15:24:04.248Z,45.10
2023-02-22T15:26:51.943Z,43.91
2023-02-22T15:29:36.570Z,44.78
2023-02-22T15:32:19.625Z,46.26
2023-02-22T15:34:47.325Z,44.17
2023-02-22T15:37:25.650Z,44.96
2023-02-22T15:39:59.587Z,44.67
2023-02-22T15:42:30.541Z,44.51
2023-02-22T15:44:58.389Z,44.63
2023-02-22T15:47:32.156Z,45.41
2023-02-22T15:50:21.218Z,46.88
2023-02-22T15:53:00.845Z,45.41
2023-02-22T15:55:40.039Z,46.76
2023-02-22T15:58:10.961Z,45.22
2023-02-22T16:01:00.961Z,46.24
2023-02-22T16:03:45.600Z,46.51
2023-02-22T16:06:18.050Z,45.67
2023-02-22T16:08:55.055Z,46.32
2023-02-22T16:11:22.965Z,46.41
2023-02-22T16:13:54.534Z,45.90
2023-02-22T16:16:27.829Z,46.04
2023-02-22T16:19:17.837Z,47.21
2023-02-22T16:21:58.493Z,45.83
2023-02-22T16:24:27.933Z,45.49
2023-02-22T16:27:12.793Z,47.31
2023-02-22T16:29:40.528Z,46.20
2023-02-22T16:32:08.674Z,46.45
2023-02-22T16:34:36.334Z,45.96
2023-02-22T16:37:03.964Z,46.20
2023-02-22T16:39:34.839Z,46.67
2023-02-22T16:42:05.225Z,46.68
2023-02-22T16:44:36.622Z,46.63
2023-02-22T16:47:04.451Z,46.90
2023-02-22T16:49:31.939Z,47.31
2023-02-22T16:52:01.737Z,47.32
2023-02-22T16:54:36.623Z,47.59
2023-02-22T16:57:05.211Z,47.57
2023-02-22T16:59:38.732Z,47.73
2023-02-22T17:02:09.925Z,47.22
2023-02-22T17:04:40.327Z,48.22
2023-02-22T17:07:09.420Z,47.51
2023-02-22T17:09:39.568Z,47.33
2023-02-22T17:12:07.331Z,47.46
2023-02-22T17:14:36.221Z,48.12
2023-02-22T17:17:03.904Z,48.17
2023-02-22T17:19:31.429Z,47.96
2023-02-22T17:21:59.341Z,48.31
2023-02-22T17:24:29.381Z,47.81
2023-02-22T17:26:59.894Z,47.96
2023-02-22T17:29:29.144Z,48.18
2023-02-22T17:31:57.132Z,47.79
2023-02-22T17:34:25.066Z,48.03
2023-02-22T17:36:52.619Z,47.94
2023-02-22T17:39:20.170Z,47.94
2023-02-22T17:41:51.349Z,48.23
2023-02-22T17:44:19.623Z,48.29
2023-02-22T17:46:47.138Z,48.14
2023-02-22T17:49:15.471Z,48.21
2023-02-22T17:51:43.161Z,48.59
2023-02-22T17:54:10.690Z,48.37
2023-02-22T17:56:38.163Z,47.85
2023-02-22T17:59:09.200Z,48.13
2023-02-22T18:01:37.429Z,48.53
2023-02-22T18:04:05.411Z,48.34
2023-02-22T18:06:33.437Z,48.58
2023-02-22T18:09:01.580Z,48.65
2023-02-22T18:11:32.557Z,48.18
2023-02-22T18:14:00.338Z,48.49
2023-02-22T18:16:28.184Z,48.53
2023-02-22T18:18:56.319Z,48.70
2023-02-22T18:21:26.877Z,49.10
2023-02-22T18:23:58.129Z,48.26
2023-02-22T18:26:26.212Z,48.90
2023-02-22T18:28:54.138Z,48.69
2023-02-22T18:31:23.434Z,49.32
2023-02-22T18:33:52.631Z,49.06
2023-02-22T18:36:23.610Z,48.81
2023-02-22T18:38:53.701Z,49.04
2023-02-22T18:41:26.044Z,48.45
2023-02-22T18:43:55.627Z,48.54
2023-02-22T18:46:24.712Z,48.85
2023-02-22T18:48:54.926Z,48.91
2023-02-22T18:51:23.768Z,49.33
2023-02-22T18:53:56.958Z,48.44
2023-02-22T18:56:29.903Z,48.73
2023-02-22T18:59:00.734Z,49.15
2023-02-22T19:01:29.985Z,48.85
2023-02-22T19:03:58.001Z,49.07
2023-02-22T19:06:25.478Z,48.84
2023-02-22T19:08:54.086Z,49.17
2023-02-22T19:11:24.005Z,49.03
2023-02-22T19:13:56.055Z,49.04
2023-02-22T19:16:26.375Z,49.21
2023-02-22T19:18:57.752Z,49.06
2023-02-22T19:21:28.203Z,49.10
2023-02-22T19:24:01.570Z,48.67
2023-02-22T19:26:29.672Z,49.22
2023-02-22T19:28:58.871Z,49.14
2023-02-22T19:31:31.461Z,49.02
2023-02-22T19:34:05.777Z,49.36
2023-02-22T19:36:33.397Z,49.10
2023-02-22T19:39:04.832Z,49.67
2023-02-22T19:41:32.471Z,49.26
2023-02-22T19:44:01.393Z,49.41
2023-02-22T19:46:28.955Z,49.07
2023-02-22T19:48:56.957Z,49.73
2023-02-22T19:51:27.969Z,49.32
2023-02-22T19:54:02.555Z,49.93
2023-02-22T19:56:31.441Z,49.77
2023-02-22T19:59:02.460Z,49.36
2023-02-22T20:01:33.278Z,49.41
2023-02-22T20:04:05.072Z,50.10
2023-02-22T20:06:36.076Z,49.36
2023-02-22T20:09:03.895Z,50.14
2023-02-22T20:11:31.753Z,49.49
2023-02-22T20:14:01.128Z,49.73
2023-02-22T20:16:29.261Z,49.64
2023-02-22T20:18:56.766Z,49.83
2023-02-22T20:21:32.724Z,49.74
2023-02-22T20:24:05.619Z,49.74
2023-02-22T20:26:35.725Z,49.66
2023-02-22T20:29:04.995Z,50.10
2023-02-22T20:31:33.276Z,49.39
2023-02-22T20:34:01.426Z,49.66
2023-02-22T20:36:30.787Z,50.13
2023-02-22T20:38:59.961Z,50.31
2023-02-22T20:41:32.683Z,49.92
2023-02-22T20:44:01.775Z,49.90
2023-02-22T20:46:36.190Z,49.99
2023-02-22T20:49:11.259Z,50.12
2023-02-22T20:51:42.188Z,49.84
2023-02-22T20:54:12.422Z,49.81
2023-02-22T20:56:42.524Z,50.10
2023-02-22T20:59:15.105Z,50.03
2023-02-22T21:01:42.643Z,49.88
2023-02-22T21:04:11.778Z,50.32
2023-02-22T21:06:40.494Z,49.65
2023-02-22T21:09:13.521Z,50.30
2023-02-22T21:11:41.630Z,49.52
2023-02-22T21:14:12.456Z,50.06
2023-02-22T21:16:40.252Z,49.75
2023-02-22T21:19:08.180Z,49.88
2023-02-22T21:21:36.211Z,49.82
2023-02-22T21:24:03.786Z,49.81
2023-02-22T21:26:33.283Z,50.67
2023-02-22T21:29:05.023Z,50.33
2023-02-22T21:31:34.106Z,50.64
2023-02-22T21:34:02.285Z,50.56
2023-02-22T21:36:32.050Z,50.53
2023-02-22T21:39:01.982Z,50.36
2023-02-22T21:41:31.266Z,49.65
2023-02-22T21:43:59.723Z,50.27
2023-02-22T21:46:29.360Z,50.04
2023-02-22T21:49:04.512Z,50.81
2023-02-22T21:51:33.670Z,49.81
2023-02-22T21:54:03.604Z,50.17
2023-02-22T21:56:34.792Z,50.26
2023-02-22T21:59:23.980Z,50.64
2023-02-22T22:01:56.120Z,50.18
2023-02-22T22:04:28.640Z,49.90
2023-02-22T22:06:58.783Z,50.35
2023-02-22T22:09:32.916Z,49.98
2023-02-22T22:12:08.312Z,50.38
2023-02-22T22:14:37.053Z,49.89
2023-02-22T22:17:08.081Z,49.95
2023-02-22T22:19:41.749Z,50.21
2023-02-22T22:22:09.542Z,50.32
2023-02-22T22:24:37.506Z,50.19
2023-02-22T22:27:06.643Z,50.26
2023-02-22T22:29:34.632Z,50.87
2023-02-22T22:32:03.363Z,50.85
2023-02-22T22:34:31.188Z,50.86
2023-02-22T22:36:58.961Z,50.62
2023-02-22T22:39:27.038Z,50.43
2023-02-22T22:41:54.831Z,50.64
2023-02-22T22:44:23.057Z,50.59
2023-02-22T22:46:53.841Z,51.08
2023-02-22T22:49:23.595Z,50.69
2023-02-22T22:51:51.371Z,50.71
2023-02-22T22:54:18.919Z,50.69
2023-02-22T22:56:47.334Z,50.80
2023-02-22T22:59:15.411Z,51.08
2023-02-22T23:01:44.856Z,50.69
2023-02-22T23:04:18.432Z,51.02
2023-02-22T23:06:50.017Z,51.06
2023-02-22T23:09:23.702Z,50.98
2023-02-22T23:11:56.374Z,51.12
2023-02-22T23:14:32.353Z,50.77
2023-02-22T23:17:03.663Z,50.51
2023-02-22T23:19:36.636Z,50.83
2023-02-22T23:22:08.009Z,51.41
2023-02-22T23:24:36.911Z,51.20
2023-02-22T23:27:10.906Z,51.01
2023-02-22T23:29:46.718Z,51.28
2023-02-22T23:32:17.158Z,50.95
2023-02-22T23:34:44.765Z,50.91
2023-02-22T23:37:14.722Z,51.24
2023-02-22T23:39:42.445Z,51.71
2023-02-22T23:42:09.925Z,51.51
2023-02-22T23:44:37.445Z,51.52
2023-02-22T23:47:05.048Z,51.55
2023-02-22T23:49:38.947Z,51.24
2023-02-22T23:52:08.049Z,51.40
2023-02-22T23:54:40.530Z,51.53
2023-02-22T23:57:09.016Z,51.05
2023-02-22T23:59:40.540Z,51.11
